createdAt,value
2022-09-10T00:01:33.898Z,96444.22
2022-09-10T00:04:04.441Z,96441.81
2022-09-10T00:06:35.217Z,96434.88
2022-09-10T00:09:03.597Z,96436.19
2022-09-10T00:11:35.183Z,96436.50
2022-09-10T00:14:05.929Z,96429.91
2022-09-10T00:16:34.500Z,96428.84
2022-09-10T00:19:04.222Z,96432.00
2022-09-10T00:21:32.234Z,96439.13
2022-09-10T00:24:02.193Z,96435.47
2022-09-10T00:26:34.515Z,96435.72
2022-09-10T00:29:02.910Z,96430.88
2022-09-10T00:31:32.711Z,96433.81
2022-09-10T00:34:03.436Z,96440.72
2022-09-10T00:36:36.619Z,96444.75
2022-09-10T00:39:08.554Z,96436.47
2022-09-10T00:41:40.365Z,96434.13
2022-09-10T00:44:48.140Z,96445.78
2022-09-10T00:47:20.772Z,96450.28
2022-09-10T00:49:55.070Z,96447.88
2022-09-10T00:52:24.430Z,96446.81
2022-09-10T00:54:53.230Z,96445.47
2022-09-10T00:57:24.815Z,96443.09
2022-09-10T01:00:00.175Z,96452.44
2022-09-10T01:02:29.615Z,96450.97
2022-09-10T01:05:00.095Z,96441.38
2022-09-10T01:07:30.180Z,96448.13
2022-09-10T01:09:59.880Z,96441.44
2022-09-10T01:13:13.110Z,96446.69
2022-09-10T01:15:48.109Z,96461.00
2022-09-10T01:18:31.533Z,96477.16
2022-09-10T01:21:19.268Z,96465.47
2022-09-10T01:24:15.258Z,96455.63
2022-09-10T01:27:42.528Z,96446.03
2022-09-10T01:30:17.987Z,96444.00
2022-09-10T01:33:06.536Z,96431.44
2022-09-10T01:35:43.132Z,96436.50
2022-09-10T01:38:21.559Z,96432.53
2022-09-10T01:40:50.319Z,96434.66
2022-09-10T01:43:22.890Z,96431.44
2022-09-10T01:46:13.280Z,96427.53
2022-09-10T01:49:08.142Z,96423.00
2022-09-10T01:51:52.300Z,96422.16
2022-09-10T01:54:40.652Z,96421.88
2022-09-10T01:57:20.539Z,96419.78
2022-09-10T02:00:00.385Z,96426.97
2022-09-10T02:02:35.008Z,96425.88
2022-09-10T02:05:07.708Z,96425.34
2022-09-10T02:07:38.172Z,96422.69
2022-09-10T02:10:10.494Z,96418.69
2022-09-10T02:12:46.726Z,96422.63
2022-09-10T02:15:29.369Z,96413.28
2022-09-10T02:18:09.486Z,96420.72
2022-09-10T02:20:38.789Z,96416.75
2022-09-10T02:23:09.166Z,96423.94
2022-09-10T02:25:38.235Z,96420.97
2022-09-10T02:28:07.177Z,96410.38
2022-09-10T02:30:35.304Z,96419.47
2022-09-10T02:33:03.447Z,96411.97
2022-09-10T02:35:33.941Z,96407.72
2022-09-10T02:38:01.955Z,96408.22
2022-09-10T02:40:31.772Z,96404.53
2022-09-10T02:42:59.889Z,96411.97
2022-09-10T02:45:29.561Z,96409.88
2022-09-10T02:47:57.683Z,96403.50
2022-09-10T02:50:26.055Z,96416.56
2022-09-10T02:52:55.438Z,96422.72
2022-09-10T02:55:23.492Z,96412.34
2022-09-10T02:57:51.594Z,96413.16
2022-09-10T03:00:20.299Z,96405.63
2022-09-10T03:02:48.917Z,96410.38
2022-09-10T03:05:17.445Z,96397.66
2022-09-10T03:07:46.092Z,96398.75
2022-09-10T03:10:15.461Z,96399.53
2022-09-10T03:12:43.962Z,96396.31
2022-09-10T03:15:12.730Z,96397.94
2022-09-10T03:17:40.739Z,96399.50
2022-09-10T03:20:09.973Z,96399.78
2022-09-10T03:22:38.277Z,96397.94
2022-09-10T03:25:08.134Z,96402.97
2022-09-10T03:27:38.269Z,96402.72
2022-09-10T03:30:10.626Z,96393.94
2022-09-10T03:32:38.829Z,96411.97
2022-09-10T03:38:27.653Z,96395.25
2022-09-10T03:40:56.633Z,96394.16
2022-09-10T03:43:27.049Z,96400.25
2022-09-10T03:45:55.424Z,96401.28
2022-09-10T03:48:24.520Z,96400.22
2022-09-10T03:50:52.877Z,96400.72
2022-09-10T03:53:20.941Z,96407.41
2022-09-10T03:55:51.942Z,96403.66
2022-09-10T03:58:20.250Z,96402.59
2022-09-10T04:00:49.732Z,96399.94
2022-09-10T04:03:20.197Z,96401.81
2022-09-10T04:05:48.633Z,96397.28
2022-09-10T04:08:17.280Z,96407.91
2022-09-10T04:10:46.261Z,96405.50
2022-09-10T04:13:14.903Z,96407.94
2022-09-10T04:15:46.041Z,96407.41
2022-09-10T04:18:15.745Z,96407.34
2022-09-10T04:20:47.921Z,96404.69
2022-09-10T04:23:17.485Z,96401.78
2022-09-10T04:25:47.593Z,96398.38
2022-09-10T04:28:16.018Z,96402.00
2022-09-10T04:30:47.144Z,96402.25
2022-09-10T04:33:17.555Z,96400.66
2022-09-10T04:35:46.633Z,96404.34
2022-09-10T04:38:14.877Z,96407.53
2022-09-10T04:40:47.656Z,96403.06
2022-09-10T04:43:15.832Z,96411.06
2022-09-10T04:45:45.038Z,96411.53
2022-09-10T04:48:13.694Z,96424.28
2022-09-10T04:50:59.392Z,96422.50
2022-09-10T04:53:38.560Z,96434.13
2022-09-10T04:56:07.661Z,96424.84
2022-09-10T04:58:39.296Z,96431.56
2022-09-10T05:01:08.198Z,96438.72
2022-09-10T05:03:36.346Z,96435.22
2022-09-10T05:06:06.690Z,96437.91
2022-09-10T05:08:36.133Z,96434.97
2022-09-10T05:11:06.300Z,96436.63
2022-09-10T05:13:34.978Z,96434.75
2022-09-10T05:16:03.631Z,96433.16
2022-09-10T05:18:34.004Z,96441.16
2022-09-10T05:21:02.291Z,96433.41
2022-09-10T05:23:31.958Z,96441.16
2022-09-10T05:26:01.945Z,96444.88
2022-09-10T05:28:31.534Z,96433.72
2022-09-10T05:30:59.869Z,96439.34
2022-09-10T05:33:29.719Z,96443.84
2022-09-10T05:35:58.123Z,96440.66
2022-09-10T05:38:26.626Z,96436.88
2022-09-10T05:40:57.087Z,96439.53
2022-09-10T05:43:25.291Z,96435.59
2022-09-10T05:45:53.415Z,96432.09
2022-09-10T05:48:22.433Z,96434.53
2022-09-10T05:50:50.849Z,96438.72
2022-09-10T05:53:19.087Z,96431.31
2022-09-10T05:55:47.157Z,96444.34
2022-09-10T05:58:18.247Z,96441.69
2022-09-10T06:00:50.551Z,96442.44
2022-09-10T06:03:19.856Z,96442.50
2022-09-10T06:05:51.282Z,96447.00
2022-09-10T06:08:24.160Z,96447.84
2022-09-10T06:10:58.679Z,96450.75
2022-09-10T06:13:30.418Z,96447.66
2022-09-10T06:16:00.262Z,96448.22
2022-09-10T06:18:30.063Z,96445.25
2022-09-10T06:21:07.659Z,96441.28
2022-09-10T06:23:36.432Z,96451.13
2022-09-10T06:26:08.126Z,96447.47
2022-09-10T06:28:39.871Z,96451.25
2022-09-10T06:31:11.911Z,96456.28
2022-09-10T06:33:40.001Z,96458.69
2022-09-10T06:36:08.556Z,96453.34
2022-09-10T06:38:38.956Z,96446.94
2022-09-10T06:41:12.484Z,96452.50
2022-09-10T06:43:49.555Z,96451.16
2022-09-10T06:47:01.677Z,96454.13
2022-09-10T06:49:17.372Z,96456.72
2022-09-10T06:51:49.105Z,96459.38
2022-09-10T06:54:18.809Z,96462.97
2022-09-10T06:56:49.026Z,96463.88
2022-09-10T06:59:19.044Z,96471.88
2022-09-10T07:01:49.856Z,96475.19
2022-09-10T07:04:19.435Z,96472.91
2022-09-10T07:06:47.670Z,96472.72
2022-09-10T07:09:17.474Z,96475.66
2022-09-10T07:12:00.236Z,96471.72
2022-09-10T07:14:33.213Z,96489.31
2022-09-10T07:17:05.013Z,96481.63
2022-09-10T07:19:36.256Z,96484.38
2022-09-10T07:22:06.977Z,96483.59
2022-09-10T07:24:35.857Z,96495.03
2022-09-10T07:27:11.971Z,96490.25
2022-09-10T07:29:44.313Z,96495.09
2022-09-10T07:32:16.353Z,96495.06
2022-09-10T07:34:44.448Z,96495.63
2022-09-10T07:37:15.541Z,96505.50
2022-09-10T07:39:43.783Z,96505.00
2022-09-10T07:42:12.448Z,96506.69
2022-09-10T07:44:41.926Z,96510.91
2022-09-10T07:47:11.317Z,96515.41
2022-09-10T07:49:39.718Z,96507.56
2022-09-10T07:52:09.081Z,96512.91
2022-09-10T07:54:44.833Z,96524.03
2022-09-10T07:57:13.000Z,96524.72
2022-09-10T07:59:41.594Z,96518.94
2022-09-10T08:02:15.284Z,96518.72
2022-09-10T08:04:46.915Z,96518.78
2022-09-10T08:07:17.291Z,96531.19
2022-09-10T08:09:45.454Z,96527.50
2022-09-10T08:12:17.652Z,96515.84
2022-09-10T08:14:47.484Z,96529.72
2022-09-10T08:17:17.993Z,96523.88
2022-09-10T08:19:46.985Z,96528.44
2022-09-10T08:22:15.856Z,96525.56
2022-09-10T08:24:51.106Z,96525.06
2022-09-10T08:27:19.426Z,96530.69
2022-09-10T08:29:49.234Z,96536.88
2022-09-10T08:32:18.647Z,96536.38
2022-09-10T08:34:46.808Z,96539.88
2022-09-10T08:37:16.167Z,96539.06
2022-09-10T08:39:45.060Z,96539.59
2022-09-10T08:42:21.611Z,96542.81
2022-09-10T08:44:55.145Z,96545.22
2022-09-10T08:47:37.555Z,96540.63
2022-09-10T08:50:19.059Z,96545.72
2022-09-10T08:52:53.106Z,96540.13
2022-09-10T08:55:30.522Z,96540.41
2022-09-10T08:58:04.732Z,96543.88
2022-09-10T09:00:37.918Z,96558.28
2022-09-10T09:03:22.481Z,96555.06
2022-09-10T09:05:55.527Z,96553.97
2022-09-10T09:08:34.280Z,96553.41
2022-09-10T09:11:17.745Z,96556.09
2022-09-10T09:14:05.848Z,96556.09
2022-09-10T09:16:59.622Z,96553.38
2022-09-10T09:19:35.292Z,96554.69
2022-09-10T09:22:18.116Z,96553.63
2022-09-10T09:24:57.352Z,96560.78
2022-09-10T09:27:31.175Z,96553.31
2022-09-10T09:30:04.070Z,96559.47
2022-09-10T09:32:41.770Z,96559.78
2022-09-10T09:35:26.042Z,96556.38
2022-09-10T09:38:13.697Z,96561.97
2022-09-10T09:40:48.105Z,96559.31
2022-09-10T09:43:29.736Z,96560.91
2022-09-10T09:45:58.357Z,96564.38
2022-09-10T09:48:38.636Z,96546.97
2022-09-10T09:51:12.300Z,96551.22
2022-09-10T09:53:44.038Z,96558.47
2022-09-10T09:56:22.396Z,96557.72
2022-09-10T09:58:52.026Z,96559.03
2022-09-10T10:01:24.073Z,96553.72
2022-09-10T10:04:01.639Z,96557.97
2022-09-10T10:06:34.571Z,96565.94
2022-09-10T10:09:07.076Z,96562.44
2022-09-10T10:11:46.476Z,96552.31
2022-09-10T10:14:35.158Z,96551.28
2022-09-10T10:17:03.403Z,96549.97
2022-09-10T10:19:36.518Z,96544.88
2022-09-10T10:22:27.779Z,96549.63
2022-09-10T10:24:55.850Z,96546.19
2022-09-10T10:27:32.713Z,96545.28
2022-09-10T10:30:06.090Z,96548.53
2022-09-10T10:32:44.583Z,96538.00
2022-09-10T10:35:44.167Z,96548.97
2022-09-10T10:38:34.425Z,96538.59
2022-09-10T10:41:29.647Z,96532.44
2022-09-10T10:44:28.910Z,96542.31
2022-09-10T10:47:20.662Z,96535.13
2022-09-10T10:50:01.484Z,96530.88
2022-09-10T10:52:41.441Z,96541.25
2022-09-10T10:55:23.188Z,96533.03
2022-09-10T10:58:20.200Z,96531.38
2022-09-10T11:00:55.292Z,96530.56
2022-09-10T11:03:30.054Z,96523.38
2022-09-10T11:06:05.164Z,96527.91
2022-09-10T11:08:41.858Z,96520.19
2022-09-10T11:11:18.130Z,96515.41
2022-09-10T11:13:52.458Z,96514.84
2022-09-10T11:16:26.653Z,96508.22
2022-09-10T11:19:03.098Z,96507.69
2022-09-10T11:21:38.551Z,96515.41
2022-09-10T11:24:16.976Z,96521.00
2022-09-10T11:26:54.025Z,96521.53
2022-09-10T11:29:38.761Z,96523.16
2022-09-10T11:32:15.885Z,96530.88
2022-09-10T11:34:58.701Z,96524.47
2022-09-10T11:37:47.793Z,96524.97
2022-09-10T11:40:24.353Z,96526.88
2022-09-10T11:42:59.436Z,96526.06
2022-09-10T11:45:40.524Z,96515.13
2022-09-10T11:48:19.536Z,96515.13
2022-09-10T11:50:54.334Z,96509.25
2022-09-10T11:53:24.745Z,96520.47
2022-09-10T11:56:19.821Z,96516.47
2022-09-10T11:59:05.802Z,96519.94
2022-09-10T12:02:02.454Z,96517.53
2022-09-10T12:04:47.725Z,96517.78
2022-09-10T12:07:31.477Z,96517.25
2022-09-10T12:10:17.107Z,96511.41
2022-09-10T12:12:50.146Z,96502.88
2022-09-10T12:15:24.632Z,96508.75
2022-09-10T12:17:58.600Z,96503.41
2022-09-10T12:20:33.160Z,96493.50
2022-09-10T12:23:01.982Z,96502.34
2022-09-10T12:25:34.958Z,96497.78
2022-09-10T12:28:07.950Z,96502.84
2022-09-10T12:31:03.767Z,96501.25
2022-09-10T12:34:16.887Z,96503.94
2022-09-10T12:37:24.739Z,96510.63
2022-09-10T12:40:47.352Z,96501.81
2022-09-10T12:43:54.043Z,96515.94
2022-09-10T12:46:24.340Z,96510.59
2022-09-10T12:49:11.252Z,96494.06
2022-09-10T12:51:57.644Z,96490.81
2022-09-10T12:54:46.978Z,96494.84
2022-09-10T12:57:31.001Z,96484.41
2022-09-10T13:00:22.007Z,96489.22
2022-09-10T13:03:09.434Z,96486.81
2022-09-10T13:05:51.498Z,96486.28
2022-09-10T13:08:25.721Z,96485.75
2022-09-10T13:11:16.432Z,96479.06
2022-09-10T13:13:52.327Z,96473.44
2022-09-10T13:16:38.193Z,96480.63
2022-09-10T13:19:53.779Z,96483.06
2022-09-10T13:22:58.028Z,96480.41
2022-09-10T13:25:39.989Z,96486.03
2022-09-10T13:29:02.821Z,96483.63
2022-09-10T13:31:35.825Z,96485.78
2022-09-10T13:34:31.527Z,96482.06
2022-09-10T13:37:24.894Z,96483.63
2022-09-10T13:40:33.577Z,96480.44
2022-09-10T13:43:26.532Z,96477.78
2022-09-10T13:46:00.669Z,96494.06
2022-09-10T13:48:35.552Z,96516.72
2022-09-10T13:51:16.183Z,96515.13
2022-09-10T13:53:49.023Z,96508.72
2022-09-10T13:56:24.133Z,96510.81
2022-09-10T13:58:56.564Z,96507.31
2022-09-10T14:01:50.471Z,96501.09
2022-09-10T14:04:27.627Z,96501.97
2022-09-10T14:07:02.794Z,96502.16
2022-09-10T14:09:32.979Z,96504.88
2022-09-10T14:12:04.452Z,96512.31
2022-09-10T14:14:40.415Z,96504.59
2022-09-10T14:17:13.172Z,96499.78
2022-09-10T14:19:49.346Z,96503.03
2022-09-10T14:22:22.151Z,96499.78
2022-09-10T14:24:55.128Z,96496.06
2022-09-10T14:27:26.916Z,96488.38
2022-09-10T14:29:57.374Z,96492.09
2022-09-10T14:32:36.271Z,96483.03
2022-09-10T14:35:40.713Z,96483.34
2022-09-10T14:38:26.850Z,96482.56
2022-09-10T14:41:04.315Z,96482.56
2022-09-10T14:43:38.086Z,96474.00
2022-09-10T14:46:08.784Z,96474.03
2022-09-10T14:48:40.940Z,96470.53
2022-09-10T14:51:18.531Z,96466.81
2022-09-10T14:53:51.391Z,96470.78
2022-09-10T14:56:26.502Z,96480.44
2022-09-10T14:59:00.898Z,96480.94
2022-09-10T15:01:30.507Z,96488.16
2022-09-10T15:03:59.763Z,96480.94
2022-09-10T15:06:27.976Z,96478.28
2022-09-10T15:08:57.058Z,96480.66
2022-09-10T15:11:29.202Z,96487.06
2022-09-10T15:13:59.323Z,96482.00
2022-09-10T15:16:27.959Z,96492.13
2022-09-10T15:18:58.212Z,96496.13
2022-09-10T15:21:26.645Z,96504.94
2022-09-10T15:23:54.902Z,96511.81
2022-09-10T15:26:23.441Z,96520.38
2022-09-10T15:28:55.740Z,96528.84
2022-09-10T15:31:32.034Z,96525.13
2022-09-10T15:34:00.622Z,96517.59
2022-09-10T15:36:28.853Z,96527.19
2022-09-10T15:38:59.587Z,96521.53
2022-09-10T15:41:28.446Z,96528.19
2022-09-10T15:43:58.130Z,96525.47
2022-09-10T15:46:26.517Z,96530.81
2022-09-10T15:48:56.859Z,96523.91
2022-09-10T15:51:25.459Z,96525.47
2022-09-10T15:53:55.406Z,96530.56
2022-09-10T15:56:26.977Z,96523.34
2022-09-10T15:58:58.612Z,96524.66
2022-09-10T16:01:29.146Z,96527.03
2022-09-10T16:04:02.674Z,96523.34
2022-09-10T16:06:34.608Z,96518.78
2022-09-10T16:09:06.727Z,96516.03
2022-09-10T16:11:37.366Z,96518.34
2022-09-10T16:14:11.974Z,96520.53
2022-09-10T16:16:41.381Z,96522.31
2022-09-10T16:19:12.869Z,96523.59
2022-09-10T16:21:41.488Z,96521.50
2022-09-10T16:24:10.862Z,96531.41
2022-09-10T16:26:42.368Z,96523.41
2022-09-10T16:29:16.829Z,96525.25
2022-09-10T16:31:46.021Z,96525.25
2022-09-10T16:34:18.393Z,96525.56
2022-09-10T16:36:48.819Z,96522.34
2022-09-10T16:39:19.366Z,96527.31
2022-09-10T16:41:49.769Z,96523.03
2022-09-10T16:44:20.214Z,96519.25
2022-09-10T16:46:49.531Z,96518.47
2022-09-10T16:49:19.782Z,96528.09
2022-09-10T16:51:49.939Z,96523.28
2022-09-10T16:54:20.066Z,96520.34
2022-09-10T16:56:49.360Z,96523.53
2022-09-10T16:59:21.404Z,96528.59
2022-09-10T17:01:52.037Z,96529.34
2022-09-10T17:04:27.762Z,96519.75
2022-09-10T17:06:57.011Z,96530.91
2022-09-10T17:09:25.764Z,96532.22
2022-09-10T17:11:54.151Z,96527.38
2022-09-10T17:14:24.443Z,96527.03
2022-09-10T17:16:53.105Z,96522.88
2022-09-10T17:19:24.022Z,96529.03
2022-09-10T17:21:55.511Z,96532.22
2022-09-10T17:24:26.703Z,96539.16
2022-09-10T17:26:56.033Z,96546.25
2022-09-10T17:29:26.860Z,96550.50
2022-09-10T17:31:57.295Z,96554.22
2022-09-10T17:34:26.586Z,96552.63
2022-09-10T17:36:55.001Z,96555.53
2022-09-10T17:39:27.988Z,96555.59
2022-09-10T17:41:56.358Z,96559.06
2022-09-10T17:44:26.958Z,96564.97
2022-09-10T17:46:55.523Z,96566.00
2022-09-10T17:49:24.438Z,96570.81
2022-09-10T17:51:53.266Z,96571.31
2022-09-10T17:54:21.679Z,96575.06
2022-09-10T17:56:49.820Z,96579.78
2022-09-10T17:59:17.883Z,96573.72
2022-09-10T18:01:47.928Z,96578.75
2022-09-10T18:04:16.124Z,96581.69
2022-09-10T18:06:47.843Z,96574.22
2022-09-10T18:09:17.763Z,96578.19
2022-09-10T18:11:45.957Z,96581.44
2022-09-10T18:14:18.555Z,96582.75
2022-09-10T18:16:48.090Z,96580.94
2022-09-10T18:19:18.804Z,96585.69
2022-09-10T18:21:49.124Z,96588.88
2022-09-10T18:24:22.436Z,96596.59
2022-09-10T18:26:53.794Z,96597.06
2022-09-10T18:29:24.694Z,96609.88
2022-09-10T18:31:56.889Z,96593.09
2022-09-10T18:34:27.647Z,96595.72
2022-09-10T18:36:59.154Z,96597.03
2022-09-10T18:39:29.158Z,96604.44
2022-09-10T18:41:59.022Z,96603.41
2022-09-10T18:44:29.976Z,96614.59
2022-09-10T18:46:59.463Z,96610.56
2022-09-10T18:49:28.113Z,96603.34
2022-09-10T18:51:58.057Z,96603.41
2022-09-10T18:54:29.116Z,96607.09
2022-09-10T18:56:58.046Z,96604.41
2022-09-10T18:59:27.258Z,96611.56
2022-09-10T19:01:56.819Z,96608.41
2022-09-10T19:04:28.694Z,96615.34
2022-09-10T19:06:58.276Z,96616.41
2022-09-10T19:09:28.629Z,96617.72
2022-09-10T19:11:59.130Z,96616.34
2022-09-10T19:14:29.951Z,96617.22
2022-09-10T19:17:00.373Z,96620.16
2022-09-10T19:19:31.740Z,96623.06
2022-09-10T19:22:07.064Z,96617.75
2022-09-10T19:24:54.931Z,96628.66
2022-09-10T19:27:24.650Z,96631.88
2022-09-10T19:29:53.779Z,96631.81
2022-09-10T19:32:22.121Z,96628.56
2022-09-10T19:34:52.449Z,96626.75
2022-09-10T19:37:20.807Z,96624.88
2022-09-10T19:39:49.187Z,96623.84
2022-09-10T19:42:17.345Z,96625.41
2022-09-10T19:44:45.437Z,96627.50
2022-09-10T19:47:13.679Z,96619.25
2022-09-10T19:49:41.842Z,96619.97
2022-09-10T19:52:12.409Z,96624.78
2022-09-10T19:54:40.557Z,96620.81
2022-09-10T19:57:08.735Z,96622.66
2022-09-10T19:59:36.796Z,96621.03
2022-09-10T20:02:05.182Z,96620.69
2022-09-10T20:04:33.854Z,96622.13
2022-09-10T20:07:02.047Z,96620.47
2022-09-10T20:09:31.537Z,96619.75
2022-09-10T20:11:59.719Z,96627.94
2022-09-10T20:14:28.374Z,96632.47
2022-09-10T20:16:56.859Z,96632.13
2022-09-10T20:19:24.993Z,96618.75
2022-09-10T20:21:53.025Z,96619.91
2022-09-10T20:24:22.082Z,96626.59
2022-09-10T20:26:51.545Z,96623.72
2022-09-10T20:29:20.466Z,96619.06
2022-09-10T20:31:49.205Z,96619.34
2022-09-10T20:34:20.553Z,96622.00
2022-09-10T20:36:51.255Z,96620.16
2022-09-10T20:39:25.117Z,96629.22
2022-09-10T20:41:54.698Z,96621.34
2022-09-10T20:44:22.954Z,96621.59
2022-09-10T20:46:51.301Z,96624.63
2022-09-10T20:49:19.602Z,96622.44
2022-09-10T20:51:48.256Z,96627.69
2022-09-10T20:54:19.097Z,96623.97
2022-09-10T20:56:47.806Z,96626.63
2022-09-10T20:59:19.305Z,96631.41
2022-09-10T21:01:50.632Z,96627.19
2022-09-10T21:04:19.831Z,96626.06
2022-09-10T21:06:48.012Z,96619.50
2022-09-10T21:09:16.254Z,96625.00
2022-09-10T21:11:44.438Z,96624.25
2022-09-10T21:14:13.455Z,96627.44
2022-09-10T21:16:43.623Z,96624.81
2022-09-10T21:19:14.958Z,96622.44
2022-09-10T21:21:45.635Z,96630.16
2022-09-10T21:24:17.236Z,96620.47
2022-09-10T21:26:46.422Z,96637.50
2022-09-10T21:29:17.441Z,96633.88
2022-09-10T21:31:47.059Z,96642.84
2022-09-10T21:34:15.477Z,96649.41
2022-09-10T21:36:43.944Z,96659.75
2022-09-10T21:39:17.401Z,96647.44
2022-09-10T21:41:47.753Z,96654.03
2022-09-10T21:44:19.801Z,96648.00
2022-09-10T21:46:50.435Z,96647.75
2022-09-10T21:49:20.275Z,96649.84
2022-09-10T21:51:48.822Z,96650.66
2022-09-10T21:54:20.660Z,96646.13
2022-09-10T21:56:49.214Z,96662.03
2022-09-10T21:59:17.562Z,96646.88
2022-09-10T22:01:47.781Z,96653.38
2022-09-10T22:04:22.223Z,96653.69
2022-09-10T22:06:51.825Z,96655.22
2022-09-10T22:09:21.218Z,96650.56
2022-09-10T22:11:52.025Z,96650.97
2022-09-10T22:14:22.576Z,96651.53
2022-09-10T22:16:51.607Z,96652.06
2022-09-10T22:19:24.705Z,96654.72
2022-09-10T22:21:54.064Z,96650.97
2022-09-10T22:24:22.566Z,96662.50
2022-09-10T22:26:50.629Z,96661.59
2022-09-10T22:29:20.897Z,96659.38
2022-09-10T22:31:49.609Z,96660.03
2022-09-10T22:34:20.885Z,96652.56
2022-09-10T22:36:50.420Z,96653.91
2022-09-10T22:39:20.308Z,96658.69
2022-09-10T22:41:49.943Z,96662.53
2022-09-10T22:44:19.832Z,96663.84
2022-09-10T22:46:48.717Z,96663.19
2022-09-10T22:49:17.297Z,96667.88
2022-09-10T22:51:45.948Z,96663.31
2022-09-10T22:54:16.557Z,96663.13
2022-09-10T22:56:45.344Z,96662.41
2022-09-10T22:59:14.858Z,96666.50
2022-09-10T23:01:47.456Z,96666.63
2022-09-10T23:04:16.551Z,96674.34
2022-09-10T23:06:44.745Z,96677.78
2022-09-10T23:09:16.399Z,96678.84
2022-09-10T23:11:45.627Z,96677.31
2022-09-10T23:14:17.740Z,96673.84
2022-09-10T23:16:48.585Z,96660.28
2022-09-10T23:19:19.345Z,96667.31
2022-09-10T23:21:49.896Z,96667.41
2022-09-10T23:24:22.468Z,96663.31
2022-09-10T23:26:51.064Z,96664.38
2022-09-10T23:29:23.003Z,96663.19
2022-09-10T23:31:53.264Z,96670.16
2022-09-10T23:34:22.423Z,96666.31
2022-09-10T23:36:51.141Z,96661.19
2022-09-10T23:39:22.863Z,96667.59
2022-09-10T23:41:53.036Z,96674.34
2022-09-10T23:44:21.767Z,96667.41
2022-09-10T23:46:50.671Z,96668.41
2022-09-10T23:49:18.843Z,96670.16
2022-09-10T23:51:47.137Z,96665.31
2022-09-10T23:54:15.234Z,96667.97
2022-09-10T23:56:45.283Z,96669.69
2022-09-10T23:59:15.308Z,96671.13
